sensor_id;sensor_type;location;lat;lon;timestamp;P1;durP1;ratioP1;P2;durP2;ratioP2
48034;SDS011;33812;46.480;6.834;2023-05-16T00:03:43;7.63;;;1.88;;
48034;SDS011;33812;46.480;6.834;2023-05-16T00:07:47;7.35;;;1.52;;
48034;SDS011;33812;46.480;6.834;2023-05-16T00:11:55;7.78;;;2.05;;
48034;SDS011;33812;46.480;6.834;2023-05-16T00:15:58;6.13;;;2.10;;
48034;SDS011;33812;46.480;6.834;2023-05-16T00:20:01;8.07;;;2.17;;
48034;SDS011;33812;46.480;6.834;2023-05-16T00:24:11;9.43;;;2.38;;
48034;SDS011;33812;46.480;6.834;2023-05-16T00:28:13;6.30;;;2.03;;
48034;SDS011;33812;46.480;6.834;2023-05-16T00:32:16;10.05;;;2.50;;
48034;SDS011;33812;46.480;6.834;2023-05-16T00:36:18;11.40;;;2.70;;
48034;SDS011;33812;46.480;6.834;2023-05-16T00:40:23;9.57;;;2.40;;
48034;SDS011;33812;46.480;6.834;2023-05-16T00:44:24;6.40;;;2.03;;
48034;SDS011;33812;46.480;6.834;2023-05-16T00:48:27;10.95;;;1.98;;
48034;SDS011;33812;46.480;6.834;2023-05-16T00:52:29;9.60;;;2.25;;
48034;SDS011;33812;46.480;6.834;2023-05-16T00:56:34;11.20;;;2.65;;
48034;SDS011;33812;46.480;6.834;2023-05-16T01:00:36;9.02;;;2.33;;
48034;SDS011;33812;46.480;6.834;2023-05-16T01:04:38;9.35;;;2.38;;
48034;SDS011;33812;46.480;6.834;2023-05-16T01:08:40;9.52;;;2.35;;
48034;SDS011;33812;46.480;6.834;2023-05-16T01:12:47;15.48;;;3.55;;
48034;SDS011;33812;46.480;6.834;2023-05-16T01:17:04;15.75;;;3.17;;
48034;SDS011;33812;46.480;6.834;2023-05-16T01:21:11;12.20;;;2.90;;
48034;SDS011;33812;46.480;6.834;2023-05-16T01:25:21;7.68;;;2.08;;
48034;SDS011;33812;46.480;6.834;2023-05-16T01:29:37;14.77;;;2.55;;
48034;SDS011;33812;46.480;6.834;2023-05-16T01:33:39;3.17;;;1.67;;
48034;SDS011;33812;46.480;6.834;2023-05-16T01:37:48;4.75;;;1.85;;
48034;SDS011;33812;46.480;6.834;2023-05-16T01:46:07;5.97;;;2.05;;
48034;SDS011;33812;46.480;6.834;2023-05-16T01:50:24;12.30;;;2.65;;
48034;SDS011;33812;46.480;6.834;2023-05-16T01:54:36;12.23;;;3.22;;
48034;SDS011;33812;46.480;6.834;2023-05-16T01:58:47;7.60;;;2.13;;
48034;SDS011;33812;46.480;6.834;2023-05-16T02:02:53;4.93;;;1.83;;
48034;SDS011;33812;46.480;6.834;2023-05-16T02:06:57;4.10;;;1.67;;
48034;SDS011;33812;46.480;6.834;2023-05-16T02:11:11;4.95;;;2.13;;
48034;SDS011;33812;46.480;6.834;2023-05-16T02:15:15;6.28;;;2.03;;
48034;SDS011;33812;46.480;6.834;2023-05-16T02:23:29;6.93;;;1.92;;
48034;SDS011;33812;46.480;6.834;2023-05-16T02:27:38;3.83;;;1.70;;
48034;SDS011;33812;46.480;6.834;2023-05-16T02:31:40;18.17;;;3.38;;
48034;SDS011;33812;46.480;6.834;2023-05-16T02:35:44;5.63;;;1.88;;
48034;SDS011;33812;46.480;6.834;2023-05-16T02:39:46;7.63;;;2.40;;
48034;SDS011;33812;46.480;6.834;2023-05-16T02:43:50;10.18;;;2.72;;
48034;SDS011;33812;46.480;6.834;2023-05-16T02:47:58;8.40;;;2.40;;
48034;SDS011;33812;46.480;6.834;2023-05-16T02:52:05;17.10;;;3.40;;
48034;SDS011;33812;46.480;6.834;2023-05-16T03:09:24;9.10;;;2.28;;
48034;SDS011;33812;46.480;6.834;2023-05-16T03:17:40;7.07;;;2.15;;
48034;SDS011;33812;46.480;6.834;2023-05-16T03:21:42;11.25;;;2.55;;
48034;SDS011;33812;46.480;6.834;2023-05-16T03:25:45;7.47;;;2.22;;
48034;SDS011;33812;46.480;6.834;2023-05-16T03:29:46;13.55;;;3.17;;
48034;SDS011;33812;46.480;6.834;2023-05-16T03:33:48;15.13;;;3.42;;
48034;SDS011;33812;46.480;6.834;2023-05-16T03:37:51;15.65;;;2.70;;
48034;SDS011;33812;46.480;6.834;2023-05-16T03:41:54;12.93;;;2.85;;
48034;SDS011;33812;46.480;6.834;2023-05-16T03:46:03;10.35;;;2.53;;
48034;SDS011;33812;46.480;6.834;2023-05-16T03:50:11;3.45;;;1.67;;
48034;SDS011;33812;46.480;6.834;2023-05-16T03:54:13;7.00;;;1.85;;
48034;SDS011;33812;46.480;6.834;2023-05-16T04:11:18;2.75;;;1.77;;
48034;SDS011;33812;46.480;6.834;2023-05-16T04:15:22;5.18;;;2.15;;
48034;SDS011;33812;46.480;6.834;2023-05-16T04:19:25;2.85;;;1.58;;
48034;SDS011;33812;46.480;6.834;2023-05-16T04:23:28;5.60;;;2.05;;
48034;SDS011;33812;46.480;6.834;2023-05-16T04:27:31;8.32;;;2.25;;
48034;SDS011;33812;46.480;6.834;2023-05-16T04:31:34;14.35;;;3.30;;
48034;SDS011;33812;46.480;6.834;2023-05-16T04:35:37;7.07;;;2.22;;
48034;SDS011;33812;46.480;6.834;2023-05-16T04:39:40;3.60;;;1.42;;
48034;SDS011;33812;46.480;6.834;2023-05-16T04:43:44;7.57;;;2.05;;
48034;SDS011;33812;46.480;6.834;2023-05-16T04:47:47;6.43;;;2.03;;
48034;SDS011;33812;46.480;6.834;2023-05-16T04:51:50;25.40;;;4.88;;
48034;SDS011;33812;46.480;6.834;2023-05-16T04:55:54;9.30;;;2.15;;
48034;SDS011;33812;46.480;6.834;2023-05-16T04:59:58;14.10;;;3.38;;
48034;SDS011;33812;46.480;6.834;2023-05-16T05:04:03;13.93;;;3.25;;
48034;SDS011;33812;46.480;6.834;2023-05-16T05:08:05;8.45;;;1.92;;
48034;SDS011;33812;46.480;6.834;2023-05-16T05:12:13;5.43;;;1.67;;
48034;SDS011;33812;46.480;6.834;2023-05-16T05:16:15;4.25;;;1.38;;
48034;SDS011;33812;46.480;6.834;2023-05-16T05:20:21;7.40;;;2.20;;
48034;SDS011;33812;46.480;6.834;2023-05-16T05:24:23;17.38;;;2.78;;
48034;SDS011;33812;46.480;6.834;2023-05-16T05:28:26;7.10;;;2.00;;
48034;SDS011;33812;46.480;6.834;2023-05-16T05:32:29;15.75;;;3.63;;
48034;SDS011;33812;46.480;6.834;2023-05-16T05:36:32;15.35;;;2.17;;
48034;SDS011;33812;46.480;6.834;2023-05-16T05:40:36;12.20;;;2.70;;
48034;SDS011;33812;46.480;6.834;2023-05-16T05:44:39;9.98;;;2.60;;
48034;SDS011;33812;46.480;6.834;2023-05-16T05:48:41;6.80;;;2.05;;
48034;SDS011;33812;46.480;6.834;2023-05-16T05:52:45;6.68;;;2.40;;
48034;SDS011;33812;46.480;6.834;2023-05-16T05:56:46;9.50;;;2.75;;
48034;SDS011;33812;46.480;6.834;2023-05-16T06:00:48;12.77;;;2.35;;
48034;SDS011;33812;46.480;6.834;2023-05-16T06:04:50;14.55;;;2.63;;
48034;SDS011;33812;46.480;6.834;2023-05-16T06:08:53;19.27;;;3.47;;
48034;SDS011;33812;46.480;6.834;2023-05-16T06:12:56;13.73;;;2.95;;
48034;SDS011;33812;46.480;6.834;2023-05-16T06:16:58;9.48;;;3.45;;
48034;SDS011;33812;46.480;6.834;2023-05-16T06:20:59;30.35;;;5.47;;
48034;SDS011;33812;46.480;6.834;2023-05-16T06:25:03;6.85;;;2.40;;
48034;SDS011;33812;46.480;6.834;2023-05-16T06:29:05;15.93;;;4.63;;
48034;SDS011;33812;46.480;6.834;2023-05-16T06:33:06;26.25;;;2.42;;
48034;SDS011;33812;46.480;6.834;2023-05-16T06:37:08;9.60;;;2.78;;
48034;SDS011;33812;46.480;6.834;2023-05-16T06:41:11;4.40;;;2.10;;
48034;SDS011;33812;46.480;6.834;2023-05-16T06:45:13;8.15;;;2.50;;
48034;SDS011;33812;46.480;6.834;2023-05-16T06:49:16;14.27;;;2.63;;
48034;SDS011;33812;46.480;6.834;2023-05-16T06:53:26;7.07;;;2.05;;
48034;SDS011;33812;46.480;6.834;2023-05-16T06:57:29;10.93;;;2.55;;
48034;SDS011;33812;46.480;6.834;2023-05-16T07:01:31;13.80;;;4.07;;
48034;SDS011;33812;46.480;6.834;2023-05-16T07:05:32;13.63;;;3.42;;
48034;SDS011;33812;46.480;6.834;2023-05-16T07:09:34;5.93;;;2.58;;
48034;SDS011;33812;46.480;6.834;2023-05-16T07:13:37;23.63;;;5.95;;
48034;SDS011;33812;46.480;6.834;2023-05-16T07:17:39;14.18;;;3.90;;
48034;SDS011;33812;46.480;6.834;2023-05-16T07:21:41;11.77;;;3.40;;
48034;SDS011;33812;46.480;6.834;2023-05-16T07:25:42;6.40;;;3.10;;
48034;SDS011;33812;46.480;6.834;2023-05-16T07:29:47;10.98;;;3.33;;
48034;SDS011;33812;46.480;6.834;2023-05-16T07:33:49;11.10;;;2.93;;
48034;SDS011;33812;46.480;6.834;2023-05-16T07:37:51;24.63;;;5.80;;
48034;SDS011;33812;46.480;6.834;2023-05-16T07:41:53;6.05;;;2.72;;
48034;SDS011;33812;46.480;6.834;2023-05-16T07:45:56;6.63;;;2.67;;
48034;SDS011;33812;46.480;6.834;2023-05-16T07:49:58;5.72;;;2.60;;
48034;SDS011;33812;46.480;6.834;2023-05-16T07:53:59;5.75;;;2.55;;
48034;SDS011;33812;46.480;6.834;2023-05-16T07:58:01;15.13;;;4.43;;
48034;SDS011;33812;46.480;6.834;2023-05-16T08:02:05;6.10;;;2.40;;
48034;SDS011;33812;46.480;6.834;2023-05-16T08:06:06;7.93;;;2.60;;
48034;SDS011;33812;46.480;6.834;2023-05-16T08:10:08;6.97;;;3.22;;
48034;SDS011;33812;46.480;6.834;2023-05-16T08:14:10;6.95;;;2.35;;
48034;SDS011;33812;46.480;6.834;2023-05-16T08:18:13;8.40;;;2.90;;
48034;SDS011;33812;46.480;6.834;2023-05-16T08:22:15;24.58;;;5.22;;
48034;SDS011;33812;46.480;6.834;2023-05-16T08:26:17;13.52;;;3.38;;
48034;SDS011;33812;46.480;6.834;2023-05-16T08:30:21;8.18;;;2.35;;
48034;SDS011;33812;46.480;6.834;2023-05-16T08:34:25;7.22;;;2.80;;
48034;SDS011;33812;46.480;6.834;2023-05-16T08:38:26;7.30;;;2.83;;
48034;SDS011;33812;46.480;6.834;2023-05-16T08:42:28;4.25;;;2.75;;
48034;SDS011;33812;46.480;6.834;2023-05-16T08:46:30;6.15;;;3.30;;
48034;SDS011;33812;46.480;6.834;2023-05-16T08:50:36;7.90;;;2.65;;
48034;SDS011;33812;46.480;6.834;2023-05-16T08:54:38;6.53;;;2.83;;
48034;SDS011;33812;46.480;6.834;2023-05-16T08:58:47;3.00;;;2.13;;
48034;SDS011;33812;46.480;6.834;2023-05-16T09:02:52;7.75;;;2.58;;
48034;SDS011;33812;46.480;6.834;2023-05-16T09:06:56;3.17;;;1.95;;
48034;SDS011;33812;46.480;6.834;2023-05-16T09:10:58;3.13;;;2.40;;
48034;SDS011;33812;46.480;6.834;2023-05-16T09:15:00;1102.15;;;979.50;;
48034;SDS011;33812;46.480;6.834;2023-05-16T09:19:03;1096.20;;;977.42;;
